Time;durP1;ratioP1;P1;durP2;ratioP2;P2;SDS_P1;SDS_P2;PMS_P1;PMS_P2;Temp;Humidity;BMP_temperature;BMP_pressure;BME280_temperature;BME280_humidity;BME280_pressure;Samples;Min_cycle;Max_cycle;Signal;HPM_P1;HPM_P2
2023/12/19 00:02:21;;;;;;;22.53;15.90;;;;;;;-0.22;100.00;101355.56;5061963;28;20233;-65
2023/12/19 00:04:47;;;;;;;22.17;15.10;;;;;;;-0.17;100.00;101353.06;5072569;28;20177;-65
2023/12/19 00:07:12;;;;;;;22.47;15.00;;;;;;;0.01;100.00;101367.56;5071916;28;20184;-64
2023/12/19 00:09:37;;;;;;;26.20;17.17;;;;;;;-0.07;100.00;101357.38;5072578;28;20178;-66
2023/12/19 00:12:04;;;;;;;21.13;14.67;;;;;;;-0.14;100.00;101335.38;5070127;28;20306;-64
2023/12/19 00:14:29;;;;;;;19.80;13.03;;;;;;;-0.15;100.00;101336.22;5045575;28;20631;-65
2023/12/19 00:16:54;;;;;;;21.27;14.93;;;;;;;0.04;100.00;101337.25;5066434;28;20193;-63
2023/12/19 00:19:20;;;;;;;22.30;15.20;;;;;;;-0.10;100.00;101339.66;5071593;28;20229;-65
2023/12/19 00:21:45;;;;;;;21.17;15.67;;;;;;;-0.02;100.00;101347.31;5060504;28;20660;-66
2023/12/19 00:24:10;;;;;;;20.43;15.00;;;;;;;0.02;100.00;101348.19;5073137;28;20261;-64
2023/12/19 00:26:36;;;;;;;23.07;14.80;;;;;;;-0.03;100.00;101338.84;5062638;28;20209;-63
2023/12/19 00:29:01;;;;;;;22.60;15.07;;;;;;;-0.26;100.00;101332.72;5068478;28;20177;-61
2023/12/19 00:31:26;;;;;;;20.13;14.27;;;;;;;-0.27;100.00;101344.53;5042991;27;20231;-62
2023/12/19 00:33:51;;;;;;;20.80;15.03;;;;;;;0.04;100.00;101346.50;5073132;28;20391;-62
2023/12/19 00:36:21;;;;;;;22.20;14.60;;;;;;;0.03;100.00;101347.38;5063783;28;20203;-61
2023/12/19 00:38:46;;;;;;;21.17;13.77;;;;;;;0.14;100.00;101340.72;5068072;28;20187;-62
2023/12/19 00:41:11;;;;;;;16.73;13.27;;;;;;;0.08;100.00;101353.31;5055706;28;20623;-62
2023/12/19 00:43:36;;;;;;;20.40;14.37;;;;;;;0.20;100.00;101347.50;5065834;28;20200;-62
2023/12/19 00:46:02;;;;;;;19.27;13.43;;;;;;;0.02;100.00;101349.03;5052358;28;20198;-62
2023/12/19 00:48:27;;;;;;;16.10;13.47;;;;;;;-0.24;100.00;101346.25;5052147;28;20186;-62
2023/12/19 00:50:52;;;;;;;19.47;14.13;;;;;;;-0.27;100.00;101336.97;5048760;28;20304;-61
2023/12/19 00:53:17;;;;;;;17.47;12.43;;;;;;;-0.21;100.00;101326.91;5065513;28;20185;-62
2023/12/19 00:55:43;;;;;;;16.43;13.67;;;;;;;0.01;100.00;101328.78;5061669;28;20588;-62
2023/12/19 00:58:08;;;;;;;16.97;14.13;;;;;;;0.15;100.00;101329.75;5066603;28;20587;-63
2023/12/19 01:00:33;;;;;;;17.80;12.47;;;;;;;0.17;100.00;101323.00;5047793;28;20246;-63
2023/12/19 01:02:59;;;;;;;19.03;14.00;;;;;;;0.11;100.00;101331.41;5064947;28;20191;-63
2023/12/19 01:05:24;;;;;;;21.80;17.97;;;;;;;-0.06;100.00;101348.97;5054035;28;20188;-62
2023/12/19 01:07:49;;;;;;;19.97;15.43;;;;;;;0.09;100.00;101338.13;5054782;28;20248;-62
2023/12/19 01:10:15;;;;;;;19.03;14.63;;;;;;;0.05;100.00;101326.31;5044326;28;20194;-62
2023/12/19 01:12:40;;;;;;;22.27;14.73;;;;;;;0.11;100.00;101325.50;5050838;28;20203;-61
2023/12/19 01:15:06;;;;;;;21.07;14.57;;;;;;;0.09;100.00;101322.13;5069179;28;20207;-62
2023/12/19 01:17:31;;;;;;;18.30;15.23;;;;;;;0.19;100.00;101317.94;5064216;28;20167;-62
2023/12/19 01:19:56;;;;;;;21.60;15.23;;;;;;;0.05;100.00;101323.78;5062838;28;20262;-61
2023/12/19 01:22:22;;;;;;;20.80;14.93;;;;;;;0.19;100.00;101318.81;5040254;28;20595;-62
2023/12/19 01:24:48;;;;;;;21.17;14.77;;;;;;;0.19;100.00;101323.88;5059974;28;20324;-63
2023/12/19 01:27:13;;;;;;;18.80;13.47;;;;;;;0.19;100.00;101334.00;5064509;28;20179;-63
2023/12/19 01:29:38;;;;;;;20.67;14.97;;;;;;;0.15;100.00;101363.50;5068055;28;20547;-63
2023/12/19 01:32:04;;;;;;;19.60;14.37;;;;;;;0.21;100.00;101364.38;5056564;28;20240;-62
2023/12/19 01:34:31;;;;;;;20.30;14.17;;;;;;;0.06;100.00;101360.88;5052395;28;20188;-63
2023/12/19 01:36:56;;;;;;;20.57;14.93;;;;;;;-0.01;100.00;101354.91;5063846;28;20235;-62
2023/12/19 01:39:22;;;;;;;21.07;15.03;;;;;;;-0.01;100.00;101343.94;5066796;28;20533;-62
2023/12/19 01:41:47;;;;;;;19.67;14.10;;;;;;;-0.11;100.00;101337.97;5066969;28;20244;-62
2023/12/19 01:44:19;;;;;;;18.13;14.33;;;;;;;-0.24;100.00;101336.97;5063628;28;20205;-62
2023/12/19 01:46:46;;;;;;;20.23;14.33;;;;;;;-0.35;100.00;101333.50;5063199;28;20710;-62
2023/12/19 01:49:11;;;;;;;17.50;13.60;;;;;;;-0.48;100.00;101340.09;5065142;28;20177;-62
2023/12/19 01:51:36;;;;;;;20.73;14.63;;;;;;;-0.54;100.00;101345.94;5067177;28;20317;-61
2023/12/19 01:54:05;;;;;;;23.93;15.93;;;;;;;-0.38;100.00;101346.94;5063788;28;20271;-61
2023/12/19 01:56:31;;;;;;;19.97;14.60;;;;;;;-0.49;100.00;101329.13;5043939;28;20175;-61
2023/12/19 01:59:00;;;;;;;23.20;14.83;;;;;;;-0.48;100.00;101355.28;5051359;28;20180;-61
2023/12/19 02:01:25;;;;;;;22.53;15.40;;;;;;;-0.48;100.00;101372.97;5051343;28;20219;-61
2023/12/19 02:03:51;;;;;;;18.80;13.13;;;;;;;-0.38;100.00;101364.66;5049968;28;20647;-61
2023/12/19 02:06:19;;;;;;;21.83;14.83;;;;;;;-0.59;100.00;101354.31;5051881;28;20190;-62
2023/12/19 02:08:44;;;;;;;21.03;15.00;;;;;;;-0.79;100.00;101337.22;5051078;28;20503;-60
2023/12/19 02:11:10;;;;;;;19.50;13.63;;;;;;;-0.76;100.00;101326.31;5049859;28;20366;-60
2023/12/19 02:13:35;;;;;;;17.27;13.00;;;;;;;-0.58;100.00;101320.59;5058287;28;20183;-61
2023/12/19 02:16:00;;;;;;;19.20;13.57;;;;;;;-0.57;100.00;101310.53;5051514;28;20174;-61
2023/12/19 02:18:26;;;;;;;22.57;15.37;;;;;;;-0.57;100.00;101317.25;5051139;28;20209;-62
2023/12/19 02:20:51;;;;;;;22.50;13.90;;;;;;;-0.47;100.00;101319.06;5047185;28;20724;-61
2023/12/19 02:23:16;;;;;;;20.13;13.63;;;;;;;-0.40;100.00;101315.75;5060005;28;20248;-62
2023/12/19 02:25:42;;;;;;;23.37;15.07;;;;;;;-0.34;100.00;101312.44;5051753;28;20236;-62
2023/12/19 02:28:08;;;;;;;23.03;14.97;;;;;;;-0.41;100.00;101309.00;5048798;28;20182;-62
2023/12/19 02:30:37;;;;;;;24.60;14.47;;;;;;;-0.29;100.00;101320.06;5037072;28;20244;-62
2023/12/19 02:33:03;;;;;;;23.97;14.30;;;;;;;-0.18;100.00;101316.81;5062533;28;20208;-62
2023/12/19 02:35:28;;;;;;;25.87;15.80;;;;;;;-0.24;100.00;101308.31;5051727;28;20191;-63
2023/12/19 02:37:54;;;;;;;28.90;16.33;;;;;;;-0.17;100.00;101313.44;5050985;28;20186;-62
2023/12/19 02:40:19;;;;;;;23.97;16.07;;;;;;;-0.18;100.00;101326.09;5043526;28;20188;-61
2023/12/19 02:42:45;;;;;;;22.93;16.10;;;;;;;-0.06;100.00;101307.66;5049266;28;20212;-61
2023/12/19 02:45:10;;;;;;;23.73;14.53;;;;;;;-0.09;100.00;101312.66;5050928;28;20199;-61
2023/12/19 02:47:36;;;;;;;26.23;16.70;;;;;;;0.01;100.00;101323.72;5049368;28;20177;-64
2023/12/19 02:50:01;;;;;;;24.13;15.07;;;;;;;0.03;100.00;101314.47;5049423;28;20546;-62
2023/12/19 02:52:27;;;;;;;27.43;16.47;;;;;;;0.06;100.00;101305.19;5055434;28;20237;-62
2023/12/19 02:54:52;;;;;;;25.53;16.57;;;;;;;0.02;100.00;101303.50;5070213;28;20656;-63
2023/12/19 02:57:17;;;;;;;26.30;16.57;;;;;;;0.01;100.00;101294.19;5073680;28;20193;-62
2023/12/19 02:59:42;;;;;;;23.57;15.47;;;;;;;-0.01;100.00;101285.78;5073714;28;20179;-62
2023/12/19 03:02:08;;;;;;;24.93;16.30;;;;;;;0.01;100.00;101279.03;5058366;28;20612;-62
2023/12/19 03:04:33;;;;;;;25.43;16.57;;;;;;;-0.01;100.00;101271.44;5051355;28;20189;-62
2023/12/19 03:06:58;;;;;;;24.80;16.93;;;;;;;0.05;100.00;101247.88;5063693;28;20187;-62
2023/12/19 03:09:24;;;;;;;24.83;15.63;;;;;;;-0.13;100.00;101225.81;5054331;28;20323;-62
2023/12/19 03:12:06;;;;;;;27.60;16.83;;;;;;;-0.04;100.00;101238.53;5057520;28;20233;-62
2023/12/19 03:14:35;;;;;;;28.93;16.63;;;;;;;0.02;100.00;101259.66;5052488;28;20183;-62
2023/12/19 03:17:02;;;;;;;26.13;17.40;;;;;;;0.11;100.00;101257.16;5052273;28;20180;-62
2023/12/19 03:19:27;;;;;;;26.27;16.90;;;;;;;0.08;100.00;101236.91;5070828;28;20862;-61
2023/12/19 03:21:54;;;;;;;26.87;16.70;;;;;;;0.04;100.00;101228.47;5065907;28;20229;-62
2023/12/19 03:24:20;;;;;;;29.67;16.90;;;;;;;0.10;100.00;101235.22;5052671;28;20194;-62
2023/12/19 03:26:45;;;;;;;24.13;15.93;;;;;;;0.08;100.00;101229.34;5053260;28;20185;-62
2023/12/19 03:29:10;;;;;;;26.20;17.00;;;;;;;0.17;100.00;101216.72;5054411;28;20182;-62
2023/12/19 03:31:36;;;;;;;22.00;14.83;;;;;;;0.10;100.00;101223.44;5055353;28;20309;-62
2023/12/19 03:34:02;;;;;;;25.87;15.53;;;;;;;0.18;100.00;101230.25;5057328;28;20262;-62
2023/12/19 03:36:28;;;;;;;30.03;16.40;;;;;;;0.23;100.00;101219.28;5049714;28;20281;-62
2023/12/19 03:38:53;;;;;;;28.87;17.03;;;;;;;-0.03;100.00;101209.84;5052999;28;20511;-62
2023/12/19 03:41:18;;;;;;;23.53;16.33;;;;;;;0.10;100.00;101225.09;5053656;28;20303;-62
2023/12/19 03:43:44;;;;;;;24.83;17.27;;;;;;;0.16;100.00;101209.97;5059539;28;20179;-62
2023/12/19 03:46:10;;;;;;;26.87;17.67;;;;;;;0.19;100.00;101201.53;5054080;28;20192;-62
2023/12/19 03:48:35;;;;;;;27.20;16.90;;;;;;;0.13;100.00;101189.72;5060492;28;20543;-62
2023/12/19 03:51:01;;;;;;;25.83;18.40;;;;;;;0.35;100.00;101205.00;5069455;28;20315;-62
2023/12/19 03:53:27;;;;;;;24.60;17.73;;;;;;;0.44;100.00;101194.94;5068652;28;20531;-62
2023/12/19 03:55:52;;;;;;;27.47;19.70;;;;;;;0.53;100.00;101206.81;5060250;28;20278;-62
2023/12/19 03:58:18;;;;;;;24.80;16.93;;;;;;;0.53;100.00;101215.25;5070996;28;20258;-62
2023/12/19 04:00:43;;;;;;;24.37;17.00;;;;;;;0.68;100.00;101241.47;5056214;28;20231;-62
2023/12/19 04:03:08;;;;;;;24.97;16.83;;;;;;;0.79;100.00;101245.78;5063049;28;20178;-62
2023/12/19 04:05:34;;;;;;;27.97;17.47;;;;;;;0.68;100.00;101234.72;5051493;28;20549;-62
2023/12/19 04:08:00;;;;;;;25.23;16.90;;;;;;;0.78;100.00;101233.94;5050928;28;20226;-62
2023/12/19 04:10:25;;;;;;;23.33;16.57;;;;;;;0.87;100.00;101234.78;5059791;28;20241;-63
2023/12/19 04:12:50;;;;;;;22.53;16.13;;;;;;;0.86;100.00;101233.13;5080231;28;20285;-63
2023/12/19 04:15:16;;;;;;;20.20;16.10;;;;;;;0.85;100.00;101228.91;5063077;28;20188;-62
2023/12/19 04:17:41;;;;;;;22.77;16.17;;;;;;;0.71;100.00;101229.69;5054195;28;20546;-62
2023/12/19 04:20:07;;;;;;;21.47;16.27;;;;;;;0.77;100.00;101226.31;5043193;28;20904;-63
2023/12/19 04:22:32;;;;;;;23.27;17.20;;;;;;;0.81;100.00;101230.56;5051282;28;20192;-62
2023/12/19 04:24:58;;;;;;;20.00;15.93;;;;;;;0.86;100.00;101228.06;5053156;28;20196;-62
2023/12/19 04:27:23;;;;;;;21.90;15.73;;;;;;;0.93;100.00;101217.94;5052614;28;20186;-62
2023/12/19 04:29:50;;;;;;;18.50;14.67;;;;;;;1.00;100.00;101217.97;5053310;28;20180;-62
2023/12/19 04:32:15;;;;;;;23.60;16.67;;;;;;;1.01;100.00;101212.91;5037687;27;20224;-62
2023/12/19 04:34:41;;;;;;;20.13;14.00;;;;;;;1.02;100.00;101203.59;5053240;28;20197;-62
2023/12/19 04:37:06;;;;;;;20.40;14.50;;;;;;;0.91;100.00;101196.00;5053463;28;20226;-62
2023/12/19 04:39:31;;;;;;;18.43;14.27;;;;;;;0.92;100.00;101190.09;5050796;28;20191;-62
2023/12/19 04:41:59;;;;;;;15.03;12.37;;;;;;;0.83;100.00;101177.38;5050400;28;20261;-62
2023/12/19 04:44:24;;;;;;;17.80;13.23;;;;;;;0.85;100.00;101173.16;5052982;28;20271;-62
2023/12/19 04:46:50;;;;;;;18.77;13.13;;;;;;;0.87;100.00;101179.06;5051632;28;20256;-62
2023/12/19 04:49:15;;;;;;;17.40;13.03;;;;;;;0.71;100.00;101179.03;5046325;28;20208;-62
2023/12/19 04:51:40;;;;;;;16.20;13.10;;;;;;;0.71;100.00;101179.03;5047839;28;20224;-62
2023/12/19 04:54:08;;;;;;;17.27;12.83;;;;;;;0.81;100.00;101184.97;5061449;28;20208;-62
2023/12/19 04:56:33;;;;;;;17.13;13.47;;;;;;;0.83;100.00;101193.41;5053705;28;20638;-61
2023/12/19 04:58:58;;;;;;;19.10;14.00;;;;;;;0.76;100.00;101195.09;5052355;28;20188;-62
2023/12/19 05:01:24;;;;;;;17.03;12.77;;;;;;;0.73;100.00;101184.97;5052423;28;20246;-62
2023/12/19 05:03:49;;;;;;;16.60;12.27;;;;;;;0.70;100.00;101179.03;5051140;28;20545;-62
2023/12/19 05:06:17;;;;;;;14.93;11.93;;;;;;;0.72;100.00;101179.88;5052481;28;20242;-62
2023/12/19 05:08:43;;;;;;;16.03;11.70;;;;;;;0.46;100.00;101188.22;5051588;28;20568;-62
2023/12/19 05:11:08;;;;;;;16.23;12.27;;;;;;;0.48;100.00;101186.53;5050154;28;20278;-62
2023/12/19 05:13:33;;;;;;;13.27;10.90;;;;;;;0.58;100.00;101190.81;5058643;28;20193;-62
2023/12/19 05:16:08;;;;;;;12.77;10.00;;;;;;;0.62;100.00;101192.50;5051373;28;20177;-62
2023/12/19 05:18:33;;;;;;;12.60;10.13;;;;;;;0.63;100.00;101193.34;5051367;28;20272;-61
2023/12/19 05:20:58;;;;;;;13.43;10.57;;;;;;;0.58;100.00;101185.75;5044074;28;20227;-63
2023/12/19 05:23:23;;;;;;;12.50;9.83;;;;;;;0.67;100.00;101190.00;5059816;28;20269;-62
2023/12/19 05:25:49;;;;;;;11.43;9.73;;;;;;;0.60;100.00;101198.41;5054481;28;20238;-62
2023/12/19 05:28:14;;;;;;;10.87;8.50;;;;;;;0.65;100.00;101199.28;5066140;28;20192;-62
2023/12/19 05:30:41;;;;;;;11.13;8.77;;;;;;;0.60;100.00;101201.78;5045511;28;20228;-63
2023/12/19 05:33:06;;;;;;;10.63;9.27;;;;;;;0.70;100.00;101205.19;5061519;28;20613;-62
2023/12/19 05:35:32;;;;;;;9.80;8.40;;;;;;;0.74;100.00;101209.41;5063386;28;20211;-62
2023/12/19 05:37:57;;;;;;;11.43;8.80;;;;;;;0.57;100.00;101198.38;5051107;28;20508;-61
2023/12/19 05:40:23;;;;;;;8.53;7.27;;;;;;;0.59;100.00;101204.31;5043209;28;20246;-63
2023/12/19 05:42:48;;;;;;;10.67;8.73;;;;;;;0.52;100.00;101200.03;5063614;28;20210;-61
2023/12/19 05:45:13;;;;;;;10.80;8.43;;;;;;;0.60;100.00;101193.34;5049640;28;20175;-63
2023/12/19 05:47:39;;;;;;;12.27;9.47;;;;;;;0.67;100.00;101184.06;5051077;28;20188;-61
2023/12/19 05:50:05;;;;;;;12.27;9.57;;;;;;;0.72;100.00;101182.41;5041563;28;20271;-64
2023/12/19 05:52:30;;;;;;;12.53;8.97;;;;;;;0.72;100.00;101190.00;5065568;28;20646;-62
2023/12/19 05:54:55;;;;;;;10.00;8.40;;;;;;;0.62;100.00;101187.44;5064439;28;20255;-62
2023/12/19 05:57:21;;;;;;;17.00;10.50;;;;;;;0.59;100.00;101178.97;5050857;28;20181;-62
2023/12/19 05:59:46;;;;;;;25.63;12.77;;;;;;;0.83;100.00;101187.50;5051604;28;20537;-62
2023/12/19 06:02:11;;;;;;;60.77;23.30;;;;;;;0.74;100.00;101184.09;5042022;28;20234;-63
2023/12/19 06:04:36;;;;;;;32.90;16.50;;;;;;;0.82;100.00;101183.28;5051525;28;20207;-63
2023/12/19 06:07:03;;;;;;;13.33;10.47;;;;;;;0.82;100.00;101188.34;5051067;28;20181;-62
2023/12/19 06:09:30;;;;;;;10.47;8.83;;;;;;;0.83;100.00;101195.09;5051550;28;20548;-63
2023/12/19 06:11:55;;;;;;;10.67;8.37;;;;;;;0.94;100.00;101185.84;5042366;28;20223;-62
2023/12/19 06:14:21;;;;;;;12.13;8.77;;;;;;;0.84;100.00;101184.97;5049932;28;20271;-63
2023/12/19 06:16:46;;;;;;;12.30;9.10;;;;;;;0.95;100.00;101177.41;5050937;28;20535;-63
2023/12/19 06:19:11;;;;;;;11.30;8.90;;;;;;;0.92;100.00;101179.94;5051376;28;20216;-62
2023/12/19 06:21:37;;;;;;;13.37;9.37;;;;;;;0.94;100.00;101170.66;5053009;28;20272;-63
2023/12/19 06:24:03;;;;;;;12.37;9.97;;;;;;;1.03;100.00;101177.41;5058103;28;20180;-61
2023/12/19 06:26:28;;;;;;;12.17;9.27;;;;;;;1.07;100.00;101167.31;5068705;28;20275;-62
2023/12/19 06:28:53;;;;;;;12.50;9.67;;;;;;;0.96;100.00;101174.03;5071009;28;20587;-62
2023/12/19 06:31:19;;;;;;;17.67;9.03;;;;;;;0.89;100.00;101173.16;5074108;28;20222;-62
2023/12/19 06:33:45;;;;;;;14.97;10.50;;;;;;;0.96;100.00;101181.63;5078825;28;20279;-63
2023/12/19 06:36:26;;;;;;;12.50;9.93;;;;;;;0.96;100.00;101192.59;5074180;28;20180;-62
2023/12/19 06:38:52;;;;;;;10.70;9.47;;;;;;;1.21;100.00;101177.47;5072787;28;20187;-62
2023/12/19 06:41:18;;;;;;;12.20;9.83;;;;;;;1.17;100.00;101180.84;5073347;28;20582;-62
2023/12/19 06:43:43;;;;;;;13.20;9.77;;;;;;;1.20;100.00;101180.84;5069215;28;20268;-62
2023/12/19 06:46:14;;;;;;;16.83;11.33;;;;;;;1.06;100.00;101177.44;5073611;28;20336;-63
2023/12/19 06:48:41;;;;;;;13.93;10.40;;;;;;;0.89;100.00;101173.16;5057784;28;20172;-62
2023/12/19 06:51:06;;;;;;;13.30;9.97;;;;;;;0.87;100.00;101159.66;5071013;28;20316;-61
2023/12/19 06:53:32;;;;;;;12.97;10.70;;;;;;;0.86;100.00;101160.50;5071123;28;20318;-62
2023/12/19 06:55:57;;;;;;;13.13;10.23;;;;;;;0.89;100.00;101149.53;5061827;28;20184;-63
2023/12/19 06:58:22;;;;;;;16.07;11.80;;;;;;;1.08;100.00;101143.66;5052431;28;20189;-62
2023/12/19 07:00:48;;;;;;;15.93;11.80;;;;;;;1.08;100.00;101147.88;5046201;28;20644;-62
2023/12/19 07:03:13;;;;;;;16.70;12.57;;;;;;;1.14;100.00;101145.34;5064087;28;20181;-63
2023/12/19 07:05:38;;;;;;;16.97;12.70;;;;;;;1.05;100.00;101140.28;5054808;28;20276;-62
2023/12/19 07:08:05;;;;;;;14.90;11.47;;;;;;;1.16;100.00;101142.84;5054790;28;20548;-62
2023/12/19 07:10:31;;;;;;;15.83;12.20;;;;;;;1.12;100.00;101147.88;5047896;28;20280;-62
2023/12/19 07:12:56;;;;;;;16.77;12.50;;;;;;;1.10;100.00;101139.44;5065958;28;20201;-62
2023/12/19 07:15:21;;;;;;;17.87;13.13;;;;;;;1.16;100.00;101140.28;5054644;28;20185;-62
2023/12/19 07:17:47;;;;;;;18.73;13.77;;;;;;;1.16;100.00;101120.84;5054478;28;20169;-62
2023/12/19 07:20:12;;;;;;;22.53;17.03;;;;;;;1.05;100.00;101133.50;5044169;28;20228;-62
2023/12/19 07:22:37;;;;;;;21.27;16.03;;;;;;;1.22;100.00;101133.53;5052131;28;20178;-62
2023/12/19 07:25:03;;;;;;;18.27;13.63;;;;;;;1.27;100.00;101120.88;5052951;28;20189;-62
2023/12/19 07:27:30;;;;;;;24.93;18.27;;;;;;;1.18;100.00;101103.97;5054989;28;20520;-62
2023/12/19 07:29:55;;;;;;;21.07;16.27;;;;;;;1.19;100.00;101107.34;5054624;28;20539;-61
2023/12/19 07:32:20;;;;;;;25.27;17.07;;;;;;;1.18;100.00;101109.03;5058485;28;20347;-62
2023/12/19 07:34:46;;;;;;;21.20;14.10;;;;;;;1.15;100.00;101095.50;5054641;28;20251;-62
2023/12/19 07:37:11;;;;;;;22.17;16.67;;;;;;;1.25;100.00;101097.19;5061610;28;20184;-62
2023/12/19 07:39:36;;;;;;;21.00;15.13;;;;;;;1.29;100.00;101101.44;5053261;28;20197;-62
2023/12/19 07:42:02;;;;;;;17.57;13.30;;;;;;;1.43;100.00;101104.78;5059373;28;20224;-62
2023/12/19 07:44:28;;;;;;;16.20;12.00;;;;;;;1.55;100.00;101103.97;5062804;28;20181;-64
2023/12/19 07:46:54;;;;;;;16.70;13.03;;;;;;;1.41;100.00;101108.19;5068417;28;20211;-62
2023/12/19 07:49:19;;;;;;;19.00;13.57;;;;;;;1.31;100.00;101102.25;5072803;28;20652;-63
2023/12/19 07:51:44;;;;;;;19.53;13.90;;;;;;;1.44;100.00;101105.66;5074076;28;20235;-62
2023/12/19 07:54:10;;;;;;;19.63;13.27;;;;;;;1.58;100.00;101106.47;5067329;28;20556;-63
2023/12/19 07:56:40;;;;;;;22.20;15.27;;;;;;;1.70;100.00;101125.91;5062715;28;20245;-62
2023/12/19 07:59:05;;;;;;;15.97;11.87;;;;;;;1.72;100.00;101133.53;5059759;28;20181;-62
2023/12/19 08:01:30;;;;;;;17.90;12.50;;;;;;;1.67;100.00;101135.22;5063308;27;20645;-63
2023/12/19 08:03:55;;;;;;;15.07;12.03;;;;;;;1.68;100.00;101132.69;5065999;28;20188;-62
2023/12/19 08:06:21;;;;;;;13.93;10.87;;;;;;;1.70;100.00;101131.00;5063247;28;20295;-64
2023/12/19 08:08:49;;;;;;;14.00;10.83;;;;;;;1.69;100.00;101124.22;5054837;28;20173;-63
2023/12/19 08:11:16;;;;;;;12.90;10.47;;;;;;;1.78;100.00;101124.19;5053062;28;20312;-62
2023/12/19 08:13:41;;;;;;;14.03;11.10;;;;;;;1.58;100.00;101109.00;5062925;28;20190;-62
2023/12/19 08:16:07;;;;;;;15.77;11.47;;;;;;;1.77;100.00;101098.84;5070570;28;20192;-62
2023/12/19 08:18:32;;;;;;;15.07;11.67;;;;;;;1.89;100.00;101103.88;5071426;28;20216;-62
2023/12/19 08:20:58;;;;;;;17.03;11.83;;;;;;;1.89;100.00;101091.19;5061852;28;20217;-62
2023/12/19 08:23:23;;;;;;;13.93;11.30;;;;;;;1.90;100.00;101104.75;5062348;28;20558;-62
2023/12/19 08:25:48;;;;;;;17.50;12.70;;;;;;;1.99;100.00;101109.78;5066101;28;20188;-62
2023/12/19 08:28:14;;;;;;;16.33;11.23;;;;;;;2.09;100.00;101113.16;5069855;28;20492;-62
2023/12/19 08:30:40;;;;;;;16.23;10.93;;;;;;;2.08;100.00;101113.97;5030556;27;20231;-62
2023/12/19 08:33:05;;;;;;;14.60;10.93;;;;;;;2.03;100.00;101115.69;5060811;28;20554;-62
2023/12/19 08:35:30;;;;;;;12.37;9.90;;;;;;;1.88;100.00;101101.34;5064421;28;20235;-63
2023/12/19 08:37:56;;;;;;;11.33;9.77;;;;;;;1.98;100.00;101094.56;5057951;28;20181;-63
2023/12/19 08:40:21;;;;;;;14.83;11.13;;;;;;;1.85;100.00;101084.44;5056188;28;20626;-64
2023/12/19 08:42:48;;;;;;;14.60;10.80;;;;;;;1.81;100.00;101094.59;5071143;28;20231;-63
2023/12/19 08:45:23;;;;;;;17.53;12.40;;;;;;;1.91;100.00;101088.66;5063848;28;20604;-64
2023/12/19 08:47:49;;;;;;;22.40;14.33;;;;;;;1.96;100.00;101093.72;5057827;28;20287;-63
2023/12/19 08:50:15;;;;;;;15.00;11.03;;;;;;;2.00;100.00;101097.91;5060295;28;20267;-64
2023/12/19 08:52:42;;;;;;;14.37;11.43;;;;;;;2.13;100.00;101098.75;5062064;28;20203;-63
2023/12/19 08:55:08;;;;;;;14.70;10.53;;;;;;;2.00;100.00;101096.25;5070045;28;20183;-63
2023/12/19 08:57:35;;;;;;;14.53;11.23;;;;;;;2.03;100.00;101092.84;5061458;28;20232;-64
2023/12/19 09:00:02;;;;;;;15.70;10.63;;;;;;;1.96;100.00;101086.97;5059484;28;20188;-62
2023/12/19 09:02:28;;;;;;;15.87;11.33;;;;;;;2.08;100.00;101078.44;5052574;28;20233;-64
2023/12/19 09:04:53;;;;;;;14.43;10.73;;;;;;;2.02;100.00;101088.63;5065256;28;20225;-65
2023/12/19 09:07:18;;;;;;;13.90;9.60;;;;;;;1.83;100.00;101076.00;5067234;28;20299;-63
2023/12/19 09:09:43;;;;;;;12.83;9.53;;;;;;;1.64;100.00;101081.94;5066264;28;20590;-62
2023/12/19 09:12:08;;;;;;;13.80;10.63;;;;;;;1.82;100.00;101081.06;5070136;28;20224;-57
2023/12/19 09:14:34;;;;;;;15.87;9.13;;;;;;;1.84;100.00;101077.69;5065522;28;20192;-63
2023/12/19 09:16:59;;;;;;;12.60;9.93;;;;;;;1.96;100.00;101088.66;5063195;28;20655;-64
2023/12/19 09:19:24;;;;;;;10.40;8.60;;;;;;;1.97;100.00;101092.88;5064283;28;20229;-62
2023/12/19 09:21:49;;;;;;;15.03;8.53;;;;;;;2.19;100.00;101088.56;5058527;28;20217;-62
2023/12/19 09:24:15;;;;;;;11.13;8.93;;;;;;;2.20;100.00;101080.13;5056457;28;20246;-63
2023/12/19 09:26:40;;;;;;;11.77;8.33;;;;;;;2.09;100.00;101086.06;5054268;28;20185;-63
2023/12/19 09:29:06;;;;;;;10.73;8.63;;;;;;;2.10;100.00;101090.28;5057061;28;20246;-63
2023/12/19 09:31:32;;;;;;;13.40;10.50;;;;;;;2.25;100.00;101078.38;5042397;28;20229;-62
2023/12/19 09:33:58;;;;;;;10.60;8.43;;;;;;;2.46;100.00;101074.91;5059562;28;20191;-63
2023/12/19 09:36:27;;;;;;;12.37;8.47;;;;;;;2.61;100.00;101075.69;5056948;28;20231;-62
2023/12/19 09:38:52;;;;;;;10.47;8.63;;;;;;;2.54;100.00;101067.22;5060367;28;20226;-63
2023/12/19 09:41:18;;;;;;;12.30;8.97;;;;;;;2.45;100.00;101052.06;5069369;28;20228;-63
2023/12/19 09:43:43;;;;;;;9.97;8.27;;;;;;;2.46;100.00;101057.13;5067815;28;20729;-63
2023/12/19 09:46:10;;;;;;;11.13;9.17;;;;;;;2.46;100.00;101041.06;5068582;28;20533;-63
2023/12/19 09:48:36;;;;;;;10.00;7.60;;;;;;;2.50;100.00;101048.63;5057309;28;20194;-62
2023/12/19 09:51:04;;;;;;;9.30;7.73;;;;;;;2.74;100.00;101041.69;5051907;28;20374;-62
2023/12/19 09:53:34;;;;;;;9.83;7.90;;;;;;;2.87;100.00;101040.75;5050508;28;20299;-62
2023/12/19 09:56:00;;;;;;;14.13;9.50;;;;;;;2.98;100.00;101048.31;5040853;28;20181;-62
2023/12/19 09:58:28;;;;;;;8.30;7.20;;;;;;;2.91;100.00;101044.13;5052970;28;20238;-63
2023/12/19 10:00:56;;;;;;;8.20;7.23;;;;;;;2.64;100.00;101028.25;5044873;28;20237;-62
2023/12/19 10:03:22;;;;;;;12.17;7.60;;;;;;;2.52;100.00;101028.31;5051869;28;20256;-62
2023/12/19 10:05:47;;;;;;;9.60;7.20;;;;;;;2.57;100.00;101024.88;5056387;28;20169;-62
2023/12/19 10:08:13;;;;;;;16.47;10.13;;;;;;;2.71;100.00;101036.66;5073807;28;20185;-62
2023/12/19 10:10:49;;;;;;;10.03;6.80;;;;;;;2.70;100.00;101035.78;5054627;28;20224;-63
2023/12/19 10:13:28;;;;;;;8.70;6.83;;;;;;;2.67;100.00;101030.75;5054833;28;20292;-62
2023/12/19 10:16:06;;;;;;;9.23;6.50;;;;;;;2.60;100.00;101020.66;5063639;28;20191;-63
2023/12/19 10:18:31;;;;;;;11.33;8.03;;;;;;;2.72;100.00;101003.59;5072432;28;20180;-62
2023/12/19 10:21:09;;;;;;;8.03;6.40;;;;;;;2.68;100.00;100990.94;5059745;28;20670;-62
2023/12/19 10:23:38;;;;;;;8.23;6.90;;;;;;;2.69;100.00;100987.53;5068715;28;20189;-62
2023/12/19 10:26:05;;;;;;;10.00;7.77;;;;;;;2.72;100.00;100974.81;5062126;28;20580;-61
2023/12/19 10:28:32;;;;;;;9.47;7.40;;;;;;;2.79;100.00;100980.69;5066899;28;20239;-62
2023/12/19 10:31:06;;;;;;;7.87;6.63;;;;;;;2.95;100.00;100977.16;5055066;28;20586;-63
2023/12/19 10:33:41;;;;;;;8.63;7.33;;;;;;;2.98;100.00;100979.69;5061948;28;20217;-62
2023/12/19 10:36:07;;;;;;;10.70;8.00;;;;;;;3.32;100.00;100973.44;5066017;28;20184;-62
2023/12/19 10:38:47;;;;;;;12.00;7.70;;;;;;;3.26;100.00;100956.53;5060631;28;20198;-64
2023/12/19 10:41:21;;;;;;;9.87;7.43;;;;;;;3.27;100.00;100947.22;5064758;28;20231;-62
2023/12/19 10:43:49;;;;;;;8.87;7.63;;;;;;;3.48;100.00;100938.50;5068637;28;20271;-61
2023/12/19 10:46:17;;;;;;;8.53;7.07;;;;;;;3.57;100.00;100940.09;5071959;28;20177;-62
2023/12/19 10:48:42;;;;;;;11.37;8.27;;;;;;;3.55;100.00;100930.78;5070071;28;20173;-62
2023/12/19 10:51:12;;;;;;;9.30;7.50;;;;;;;3.57;100.00;100923.09;5067696;28;20697;-62
2023/12/19 10:53:37;;;;;;;7.87;6.80;;;;;;;3.70;100.00;100924.66;5065112;28;20236;-62
2023/12/19 10:56:07;;;;;;;8.77;7.27;;;;;;;3.71;100.00;100928.88;5073821;28;20192;-62
2023/12/19 10:58:36;;;;;;;13.13;8.27;;;;;;;3.71;100.00;100928.88;5037149;28;20212;-62
2023/12/19 11:01:03;;;;;;;8.60;7.13;;;;;;;3.65;100.00;100935.75;5042171;28;20259;-62
2023/12/19 11:03:44;;;;;;;11.47;8.67;;;;;;;3.50;100.00;100930.00;5054623;28;20698;-62
2023/12/19 11:06:17;;;;;;;9.73;8.03;;;;;;;3.46;100.00;100918.19;5056946;28;20262;-62
2023/12/19 11:08:48;;;;;;;7.70;6.63;;;;;;;3.47;100.00;100911.38;5060040;28;20189;-63